sensor_id;sensor_type;location;lat;lon;timestamp;temperature;humidity
54684;DHT22;40582;53.100;6.686;2022-12-29T00:02:15;9.40;99.90
54684;DHT22;40582;53.100;6.686;2022-12-29T00:04:41;9.40;99.90
54684;DHT22;40582;53.100;6.686;2022-12-29T00:07:06;9.40;99.90
54684;DHT22;40582;53.100;6.686;2022-12-29T00:09:33;9.50;99.90
54684;DHT22;40582;53.100;6.686;2022-12-29T00:12:00;9.40;99.90
54684;DHT22;40582;53.100;6.686;2022-12-29T00:14:26;9.50;99.90
54684;DHT22;40582;53.100;6.686;2022-12-29T00:17:11;9.40;99.90
54684;DHT22;40582;53.100;6.686;2022-12-29T00:19:36;9.50;99.90
54684;DHT22;40582;53.100;6.686;2022-12-29T00:22:21;9.40;99.90
54684;DHT22;40582;53.100;6.686;2022-12-29T00:25:08;9.40;99.90
54684;DHT22;40582;53.100;6.686;2022-12-29T00:27:34;9.40;99.90
54684;DHT22;40582;53.100;6.686;2022-12-29T00:30:22;9.40;99.90
54684;DHT22;40582;53.100;6.686;2022-12-29T00:33:11;9.50;99.90
54684;DHT22;40582;53.100;6.686;2022-12-29T00:36:02;9.50;99.90
54684;DHT22;40582;53.100;6.686;2022-12-29T00:38:31;9.40;99.90
54684;DHT22;40582;53.100;6.686;2022-12-29T00:41:16;9.50;99.90
54684;DHT22;40582;53.100;6.686;2022-12-29T00:44:01;9.50;99.90
54684;DHT22;40582;53.100;6.686;2022-12-29T00:46:36;9.50;99.90
54684;DHT22;40582;53.100;6.686;2022-12-29T00:49:03;9.50;99.90
54684;DHT22;40582;53.100;6.686;2022-12-29T00:51:48;9.50;99.90
54684;DHT22;40582;53.100;6.686;2022-12-29T00:54:15;9.50;99.90
54684;DHT22;40582;53.100;6.686;2022-12-29T00:56:41;9.60;99.90
54684;DHT22;40582;53.100;6.686;2022-12-29T00:59:09;9.60;99.90
54684;DHT22;40582;53.100;6.686;2022-12-29T01:01:37;9.60;99.90
54684;DHT22;40582;53.100;6.686;2022-12-29T01:04:03;9.60;99.90
54684;DHT22;40582;53.100;6.686;2022-12-29T01:06:29;9.60;99.90
54684;DHT22;40582;53.100;6.686;2022-12-29T01:08:55;9.60;99.90
54684;DHT22;40582;53.100;6.686;2022-12-29T01:11:40;9.60;99.90
54684;DHT22;40582;53.100;6.686;2022-12-29T01:14:06;9.60;99.90
54684;DHT22;40582;53.100;6.686;2022-12-29T01:16:32;9.60;99.90
54684;DHT22;40582;53.100;6.686;2022-12-29T01:18:57;9.60;99.90
54684;DHT22;40582;53.100;6.686;2022-12-29T01:21:24;9.70;99.90
54684;DHT22;40582;53.100;6.686;2022-12-29T01:23:49;9.70;99.90
54684;DHT22;40582;53.100;6.686;2022-12-29T01:26:16;9.60;99.90
54684;DHT22;40582;53.100;6.686;2022-12-29T01:28:43;9.70;99.90
54684;DHT22;40582;53.100;6.686;2022-12-29T01:31:10;9.70;99.90
54684;DHT22;40582;53.100;6.686;2022-12-29T01:33:36;9.70;99.90
54684;DHT22;40582;53.100;6.686;2022-12-29T01:36:07;9.70;99.90
54684;DHT22;40582;53.100;6.686;2022-12-29T01:38:34;9.70;99.90
54684;DHT22;40582;53.100;6.686;2022-12-29T01:41:00;9.70;99.90
54684;DHT22;40582;53.100;6.686;2022-12-29T01:46:36;9.70;99.90
54684;DHT22;40582;53.100;6.686;2022-12-29T01:51:41;9.70;99.90
54684;DHT22;40582;53.100;6.686;2022-12-29T01:54:17;9.70;99.90
54684;DHT22;40582;53.100;6.686;2022-12-29T01:56:44;9.70;99.90
54684;DHT22;40582;53.100;6.686;2022-12-29T01:59:14;9.70;99.90
54684;DHT22;40582;53.100;6.686;2022-12-29T02:01:41;9.70;99.90
54684;DHT22;40582;53.100;6.686;2022-12-29T02:04:09;9.70;99.90
54684;DHT22;40582;53.100;6.686;2022-12-29T02:06:41;9.70;99.90
54684;DHT22;40582;53.100;6.686;2022-12-29T02:09:08;9.80;99.90
54684;DHT22;40582;53.100;6.686;2022-12-29T02:11:35;9.70;99.90
54684;DHT22;40582;53.100;6.686;2022-12-29T02:14:01;9.70;99.90
54684;DHT22;40582;53.100;6.686;2022-12-29T02:19:54;9.80;99.90
54684;DHT22;40582;53.100;6.686;2022-12-29T02:31:17;9.80;99.90
54684;DHT22;40582;53.100;6.686;2022-12-29T02:34:14;9.90;99.90
54684;DHT22;40582;53.100;6.686;2022-12-29T02:37:00;9.90;99.90
54684;DHT22;40582;53.100;6.686;2022-12-29T02:39:44;9.90;99.90
54684;DHT22;40582;53.100;6.686;2022-12-29T02:48:15;9.80;99.90
54684;DHT22;40582;53.100;6.686;2022-12-29T02:53:23;9.80;99.90
54684;DHT22;40582;53.100;6.686;2022-12-29T02:56:09;9.80;99.90
54684;DHT22;40582;53.100;6.686;2022-12-29T02:58:34;9.80;99.90
54684;DHT22;40582;53.100;6.686;2022-12-29T03:07:09;9.80;99.90
54684;DHT22;40582;53.100;6.686;2022-12-29T03:10:01;9.80;99.90
54684;DHT22;40582;53.100;6.686;2022-12-29T03:12:38;9.80;99.90
54684;DHT22;40582;53.100;6.686;2022-12-29T03:15:33;9.80;99.90
54684;DHT22;40582;53.100;6.686;2022-12-29T03:18:58;9.90;99.90
54684;DHT22;40582;53.100;6.686;2022-12-29T03:21:38;9.90;99.90
54684;DHT22;40582;53.100;6.686;2022-12-29T03:24:29;9.90;99.90
54684;DHT22;40582;53.100;6.686;2022-12-29T03:26:59;9.90;99.90
54684;DHT22;40582;53.100;6.686;2022-12-29T03:29:29;9.90;99.90
54684;DHT22;40582;53.100;6.686;2022-12-29T03:31:57;9.90;99.90
54684;DHT22;40582;53.100;6.686;2022-12-29T03:34:23;9.90;99.90
54684;DHT22;40582;53.100;6.686;2022-12-29T03:37:02;9.80;99.90
54684;DHT22;40582;53.100;6.686;2022-12-29T03:39:30;9.80;99.90
54684;DHT22;40582;53.100;6.686;2022-12-29T03:41:59;9.80;99.90
54684;DHT22;40582;53.100;6.686;2022-12-29T03:44:35;9.70;99.90
54684;DHT22;40582;53.100;6.686;2022-12-29T03:47:02;9.70;99.90
54684;DHT22;40582;53.100;6.686;2022-12-29T03:49:28;9.70;99.90
54684;DHT22;40582;53.100;6.686;2022-12-29T03:51:54;9.60;99.90
54684;DHT22;40582;53.100;6.686;2022-12-29T03:54:20;9.60;99.90
54684;DHT22;40582;53.100;6.686;2022-12-29T03:56:46;9.60;99.90
54684;DHT22;40582;53.100;6.686;2022-12-29T03:59:11;9.60;99.90
54684;DHT22;40582;53.100;6.686;2022-12-29T04:01:37;9.60;99.90
54684;DHT22;40582;53.100;6.686;2022-12-29T04:04:03;9.60;99.90
54684;DHT22;40582;53.100;6.686;2022-12-29T04:06:29;9.60;99.90
54684;DHT22;40582;53.100;6.686;2022-12-29T04:08:55;9.60;99.90
54684;DHT22;40582;53.100;6.686;2022-12-29T04:11:21;9.60;99.90
54684;DHT22;40582;53.100;6.686;2022-12-29T04:13:47;9.60;99.90
54684;DHT22;40582;53.100;6.686;2022-12-29T04:16:12;9.60;99.90
54684;DHT22;40582;53.100;6.686;2022-12-29T04:18:38;9.60;99.90
54684;DHT22;40582;53.100;6.686;2022-12-29T04:21:04;9.70;99.90
54684;DHT22;40582;53.100;6.686;2022-12-29T04:23:35;9.60;99.90
54684;DHT22;40582;53.100;6.686;2022-12-29T04:26:01;9.60;99.90
54684;DHT22;40582;53.100;6.686;2022-12-29T04:28:27;9.60;99.90
54684;DHT22;40582;53.100;6.686;2022-12-29T04:30:53;9.60;99.90
54684;DHT22;40582;53.100;6.686;2022-12-29T04:33:19;9.70;99.90
54684;DHT22;40582;53.100;6.686;2022-12-29T04:35:45;9.60;99.90
54684;DHT22;40582;53.100;6.686;2022-12-29T04:38:12;9.70;99.90
54684;DHT22;40582;53.100;6.686;2022-12-29T04:40:38;9.70;99.90
54684;DHT22;40582;53.100;6.686;2022-12-29T04:43:05;9.70;99.90
54684;DHT22;40582;53.100;6.686;2022-12-29T04:45:31;9.70;99.90
54684;DHT22;40582;53.100;6.686;2022-12-29T04:47:57;9.70;99.90
54684;DHT22;40582;53.100;6.686;2022-12-29T04:50:22;9.70;99.90
54684;DHT22;40582;53.100;6.686;2022-12-29T04:52:48;9.70;99.90
54684;DHT22;40582;53.100;6.686;2022-12-29T04:55:13;9.70;99.90
54684;DHT22;40582;53.100;6.686;2022-12-29T04:57:39;9.70;99.90
54684;DHT22;40582;53.100;6.686;2022-12-29T05:00:06;9.70;99.90
54684;DHT22;40582;53.100;6.686;2022-12-29T05:02:31;9.70;99.90
54684;DHT22;40582;53.100;6.686;2022-12-29T05:04:57;9.70;99.90
54684;DHT22;40582;53.100;6.686;2022-12-29T05:07:23;9.60;99.90
54684;DHT22;40582;53.100;6.686;2022-12-29T05:09:48;9.50;99.90
54684;DHT22;40582;53.100;6.686;2022-12-29T05:12:14;9.40;99.90
54684;DHT22;40582;53.100;6.686;2022-12-29T05:14:40;9.30;99.90
54684;DHT22;40582;53.100;6.686;2022-12-29T05:17:05;9.20;99.90
54684;DHT22;40582;53.100;6.686;2022-12-29T05:19:31;9.20;99.90
54684;DHT22;40582;53.100;6.686;2022-12-29T05:21:57;9.10;99.90
54684;DHT22;40582;53.100;6.686;2022-12-29T05:24:22;9.00;99.90
54684;DHT22;40582;53.100;6.686;2022-12-29T05:26:48;9.00;99.90
54684;DHT22;40582;53.100;6.686;2022-12-29T05:29:14;9.00;99.90
54684;DHT22;40582;53.100;6.686;2022-12-29T05:31:39;9.00;99.90
54684;DHT22;40582;53.100;6.686;2022-12-29T05:34:05;9.00;99.90
54684;DHT22;40582;53.100;6.686;2022-12-29T05:36:31;8.90;99.90
54684;DHT22;40582;53.100;6.686;2022-12-29T05:38:56;8.90;99.90
54684;DHT22;40582;53.100;6.686;2022-12-29T05:41:22;8.90;99.90
54684;DHT22;40582;53.100;6.686;2022-12-29T05:43:48;8.80;99.90
54684;DHT22;40582;53.100;6.686;2022-12-29T05:46:13;8.80;99.90
54684;DHT22;40582;53.100;6.686;2022-12-29T05:48:39;8.70;99.90
54684;DHT22;40582;53.100;6.686;2022-12-29T05:51:05;8.70;99.90
54684;DHT22;40582;53.100;6.686;2022-12-29T05:53:30;8.70;99.90
54684;DHT22;40582;53.100;6.686;2022-12-29T05:55:56;8.70;99.90
54684;DHT22;40582;53.100;6.686;2022-12-29T05:58:22;8.60;99.90
54684;DHT22;40582;53.100;6.686;2022-12-29T06:00:47;8.60;99.90
54684;DHT22;40582;53.100;6.686;2022-12-29T06:03:13;8.60;99.90
54684;DHT22;40582;53.100;6.686;2022-12-29T06:05:39;8.60;99.90
54684;DHT22;40582;53.100;6.686;2022-12-29T06:08:04;8.70;99.90
54684;DHT22;40582;53.100;6.686;2022-12-29T06:10:30;8.70;99.90
54684;DHT22;40582;53.100;6.686;2022-12-29T06:12:56;8.80;99.90
54684;DHT22;40582;53.100;6.686;2022-12-29T06:15:22;8.70;99.90
54684;DHT22;40582;53.100;6.686;2022-12-29T06:17:47;8.70;99.90
54684;DHT22;40582;53.100;6.686;2022-12-29T06:20:13;8.80;99.90
54684;DHT22;40582;53.100;6.686;2022-12-29T06:22:39;8.70;99.90
54684;DHT22;40582;53.100;6.686;2022-12-29T06:25:05;8.70;99.90
54684;DHT22;40582;53.100;6.686;2022-12-29T06:27:31;8.80;99.90
54684;DHT22;40582;53.100;6.686;2022-12-29T06:29:56;8.80;99.90
54684;DHT22;40582;53.100;6.686;2022-12-29T06:32:22;8.80;99.90
54684;DHT22;40582;53.100;6.686;2022-12-29T06:34:48;8.90;99.90
54684;DHT22;40582;53.100;6.686;2022-12-29T06:37:14;8.80;99.90
54684;DHT22;40582;53.100;6.686;2022-12-29T06:39:40;8.80;99.90
54684;DHT22;40582;53.100;6.686;2022-12-29T06:42:06;8.80;99.90
54684;DHT22;40582;53.100;6.686;2022-12-29T06:44:32;8.70;99.90
54684;DHT22;40582;53.100;6.686;2022-12-29T06:46:57;8.70;99.90
54684;DHT22;40582;53.100;6.686;2022-12-29T06:49:23;8.70;99.90
54684;DHT22;40582;53.100;6.686;2022-12-29T06:51:48;8.70;99.90
54684;DHT22;40582;53.100;6.686;2022-12-29T06:54:14;8.60;99.90
54684;DHT22;40582;53.100;6.686;2022-12-29T06:56:40;8.60;99.90
54684;DHT22;40582;53.100;6.686;2022-12-29T06:59:06;8.60;99.90
54684;DHT22;40582;53.100;6.686;2022-12-29T07:01:31;8.60;99.90
54684;DHT22;40582;53.100;6.686;2022-12-29T07:03:57;8.60;99.90
54684;DHT22;40582;53.100;6.686;2022-12-29T07:06:23;8.50;99.90
54684;DHT22;40582;53.100;6.686;2022-12-29T07:08:49;8.60;99.90
54684;DHT22;40582;53.100;6.686;2022-12-29T07:11:14;8.60;99.90
54684;DHT22;40582;53.100;6.686;2022-12-29T07:13:40;8.60;99.90
54684;DHT22;40582;53.100;6.686;2022-12-29T07:16:07;8.70;99.90
54684;DHT22;40582;53.100;6.686;2022-12-29T07:18:34;8.80;99.90
54684;DHT22;40582;53.100;6.686;2022-12-29T07:21:00;8.90;99.90
54684;DHT22;40582;53.100;6.686;2022-12-29T07:23:25;8.90;99.90
54684;DHT22;40582;53.100;6.686;2022-12-29T07:25:59;8.90;99.90
54684;DHT22;40582;53.100;6.686;2022-12-29T07:28:25;8.90;99.90
54684;DHT22;40582;53.100;6.686;2022-12-29T07:30:51;8.90;99.90
54684;DHT22;40582;53.100;6.686;2022-12-29T07:33:16;9.00;99.90
54684;DHT22;40582;53.100;6.686;2022-12-29T07:35:42;9.00;99.90
54684;DHT22;40582;53.100;6.686;2022-12-29T07:38:08;9.00;99.90
54684;DHT22;40582;53.100;6.686;2022-12-29T07:40:33;9.00;99.90
54684;DHT22;40582;53.100;6.686;2022-12-29T07:42:59;9.10;99.90
54684;DHT22;40582;53.100;6.686;2022-12-29T07:45:25;9.10;99.90
54684;DHT22;40582;53.100;6.686;2022-12-29T07:47:50;9.10;99.90
54684;DHT22;40582;53.100;6.686;2022-12-29T07:50:16;9.10;99.90
54684;DHT22;40582;53.100;6.686;2022-12-29T07:52:42;9.20;99.90
54684;DHT22;40582;53.100;6.686;2022-12-29T07:55:08;9.20;99.90
54684;DHT22;40582;53.100;6.686;2022-12-29T07:57:34;9.20;99.90
54684;DHT22;40582;53.100;6.686;2022-12-29T08:00:00;9.20;99.90
54684;DHT22;40582;53.100;6.686;2022-12-29T08:02:25;9.20;99.90
54684;DHT22;40582;53.100;6.686;2022-12-29T08:04:51;9.20;99.90
54684;DHT22;40582;53.100;6.686;2022-12-29T08:07:17;9.20;99.90
54684;DHT22;40582;53.100;6.686;2022-12-29T08:09:43;9.30;99.90
54684;DHT22;40582;53.100;6.686;2022-12-29T08:12:10;9.20;99.90
54684;DHT22;40582;53.100;6.686;2022-12-29T08:14:36;9.20;99.90
54684;DHT22;40582;53.100;6.686;2022-12-29T08:17:01;9.20;99.90
54684;DHT22;40582;53.100;6.686;2022-12-29T08:19:27;9.30;99.90
54684;DHT22;40582;53.100;6.686;2022-12-29T08:21:53;9.30;99.90
54684;DHT22;40582;53.100;6.686;2022-12-29T08:24:19;9.30;99.90
54684;DHT22;40582;53.100;6.686;2022-12-29T08:26:45;9.30;99.90
54684;DHT22;40582;53.100;6.686;2022-12-29T08:29:11;9.40;99.90
54684;DHT22;40582;53.100;6.686;2022-12-29T08:31:36;9.30;99.90
54684;DHT22;40582;53.100;6.686;2022-12-29T08:34:02;9.40;99.90
54684;DHT22;40582;53.100;6.686;2022-12-29T08:36:29;9.40;99.90
54684;DHT22;40582;53.100;6.686;2022-12-29T08:38:56;9.40;99.90
54684;DHT22;40582;53.100;6.686;2022-12-29T08:41:21;9.40;99.90
54684;DHT22;40582;53.100;6.686;2022-12-29T08:43:49;9.40;99.90
54684;DHT22;40582;53.100;6.686;2022-12-29T08:46:16;9.40;99.90
54684;DHT22;40582;53.100;6.686;2022-12-29T08:48:42;9.40;99.90
54684;DHT22;40582;53.100;6.686;2022-12-29T08:51:08;9.40;99.90
54684;DHT22;40582;53.100;6.686;2022-12-29T08:53:34;9.40;99.90
54684;DHT22;40582;53.100;6.686;2022-12-29T08:56:00;9.40;99.90
54684;DHT22;40582;53.100;6.686;2022-12-29T08:58:27;9.40;99.90
54684;DHT22;40582;53.100;6.686;2022-12-29T09:00:54;9.50;99.90
54684;DHT22;40582;53.100;6.686;2022-12-29T09:03:20;9.50;99.90
54684;DHT22;40582;53.100;6.686;2022-12-29T09:05:50;9.50;99.90
54684;DHT22;40582;53.100;6.686;2022-12-29T09:08:16;9.50;99.90
54684;DHT22;40582;53.100;6.686;2022-12-29T09:10:43;9.50;99.90
54684;DHT22;40582;53.100;6.686;2022-12-29T09:13:09;9.50;99.90
54684;DHT22;40582;53.100;6.686;2022-12-29T09:15:35;9.50;99.90
54684;DHT22;40582;53.100;6.686;2022-12-29T09:18:00;9.50;99.90
54684;DHT22;40582;53.100;6.686;2022-12-29T09:20:26;9.50;99.90
54684;DHT22;40582;53.100;6.686;2022-12-29T09:22:52;9.50;99.90
54684;DHT22;40582;53.100;6.686;2022-12-29T09:25:18;9.60;99.90
54684;DHT22;40582;53.100;6.686;2022-12-29T09:27:43;9.50;99.90
54684;DHT22;40582;53.100;6.686;2022-12-29T09:30:11;9.50;99.90
54684;DHT22;40582;53.100;6.686;2022-12-29T09:32:37;9.50;99.90
54684;DHT22;40582;53.100;6.686;2022-12-29T09:35:04;9.40;99.90
54684;DHT22;40582;53.100;6.686;2022-12-29T09:37:30;9.40;99.90
54684;DHT22;40582;53.100;6.686;2022-12-29T09:39:55;9.40;99.90
54684;DHT22;40582;53.100;6.686;2022-12-29T09:42:27;9.30;99.90
54684;DHT22;40582;53.100;6.686;2022-12-29T09:45:17;9.30;99.90
54684;DHT22;40582;53.100;6.686;2022-12-29T09:47:45;9.30;99.90
54684;DHT22;40582;53.100;6.686;2022-12-29T09:50:28;9.30;99.90
54684;DHT22;40582;53.100;6.686;2022-12-29T09:55:38;9.30;99.90
54684;DHT22;40582;53.100;6.686;2022-12-29T10:03:49;9.30;99.90
54684;DHT22;40582;53.100;6.686;2022-12-29T10:08:57;9.30;99.90
54684;DHT22;40582;53.100;6.686;2022-12-29T10:23:11;9.30;99.90
54684;DHT22;40582;53.100;6.686;2022-12-29T10:25:40;9.40;99.90
54684;DHT22;40582;53.100;6.686;2022-12-29T10:30:42;9.40;99.90
54684;DHT22;40582;53.100;6.686;2022-12-29T10:33:15;9.40;99.90
54684;DHT22;40582;53.100;6.686;2022-12-29T10:35:43;9.40;99.90
54684;DHT22;40582;53.100;6.686;2022-12-29T10:38:25;9.40;99.90
54684;DHT22;40582;53.100;6.686;2022-12-29T10:41:13;9.30;99.90
54684;DHT22;40582;53.100;6.686;2022-12-29T10:43:45;9.30;99.90
54684;DHT22;40582;53.100;6.686;2022-12-29T10:46:16;9.20;99.90
54684;DHT22;40582;53.100;6.686;2022-12-29T10:48:43;9.20;99.90
54684;DHT22;40582;53.100;6.686;2022-12-29T10:51:26;9.20;99.90
54684;DHT22;40582;53.100;6.686;2022-12-29T10:56:41;9.30;99.90
54684;DHT22;40582;53.100;6.686;2022-12-29T11:04:34;9.20;99.90
54684;DHT22;40582;53.100;6.686;2022-12-29T11:07:00;9.20;99.90
54684;DHT22;40582;53.100;6.686;2022-12-29T11:09:32;9.20;99.90
54684;DHT22;40582;53.100;6.686;2022-12-29T11:11:59;9.30;99.90
54684;DHT22;40582;53.100;6.686;2022-12-29T11:14:29;9.30;99.90
54684;DHT22;40582;53.100;6.686;2022-12-29T11:17:00;9.30;99.90
54684;DHT22;40582;53.100;6.686;2022-12-29T11:19:32;9.10;99.90
54684;DHT22;40582;53.100;6.686;2022-12-29T11:24:47;8.90;99.90
54684;DHT22;40582;53.100;6.686;2022-12-29T11:27:21;8.90;99.90
54684;DHT22;40582;53.100;6.686;2022-12-29T11:29:49;8.90;99.90
54684;DHT22;40582;53.100;6.686;2022-12-29T11:32:20;9.00;99.90
54684;DHT22;40582;53.100;6.686;2022-12-29T11:34:47;9.10;99.90
54684;DHT22;40582;53.100;6.686;2022-12-29T11:37:18;9.10;99.90
54684;DHT22;40582;53.100;6.686;2022-12-29T11:39:58;9.20;99.90
54684;DHT22;40582;53.100;6.686;2022-12-29T11:42:37;9.50;99.90
54684;DHT22;40582;53.100;6.686;2022-12-29T11:45:25;9.50;99.90
54684;DHT22;40582;53.100;6.686;2022-12-29T11:47:58;9.40;99.90
54684;DHT22;40582;53.100;6.686;2022-12-29T11:50:29;9.30;99.90
54684;DHT22;40582;53.100;6.686;2022-12-29T11:53:03;9.40;99.90
54684;DHT22;40582;53.100;6.686;2022-12-29T11:55:30;9.50;99.90
54684;DHT22;40582;53.100;6.686;2022-12-29T11:57:58;9.60;99.90
54684;DHT22;40582;53.100;6.686;2022-12-29T12:00:28;9.60;99.90
54684;DHT22;40582;53.100;6.686;2022-12-29T12:03:03;9.70;99.90
54684;DHT22;40582;53.100;6.686;2022-12-29T12:05:43;9.70;99.90
54684;DHT22;40582;53.100;6.686;2022-12-29T12:08:17;9.80;99.90
54684;DHT22;40582;53.100;6.686;2022-12-29T12:13:37;9.70;99.90
54684;DHT22;40582;53.100;6.686;2022-12-29T12:16:19;9.80;99.90
54684;DHT22;40582;53.100;6.686;2022-12-29T12:18:53;9.60;99.90
54684;DHT22;40582;53.100;6.686;2022-12-29T12:24:46;9.60;99.90
54684;DHT22;40582;53.100;6.686;2022-12-29T12:30:14;9.80;99.90
54684;DHT22;40582;53.100;6.686;2022-12-29T13:02:24;10.60;99.90
54684;DHT22;40582;53.100;6.686;2022-12-29T13:07:45;10.10;99.90
54684;DHT22;40582;53.100;6.686;2022-12-29T13:26:44;9.70;99.90
54684;DHT22;40582;53.100;6.686;2022-12-29T13:29:36;9.70;99.90
54684;DHT22;40582;53.100;6.686;2022-12-29T13:34:54;9.60;99.90
54684;DHT22;40582;53.100;6.686;2022-12-29T13:37:26;9.60;99.90
54684;DHT22;40582;53.100;6.686;2022-12-29T13:40:03;9.60;99.90
54684;DHT22;40582;53.100;6.686;2022-12-29T13:42:35;9.50;99.90
54684;DHT22;40582;53.100;6.686;2022-12-29T13:45:06;9.40;99.90
54684;DHT22;40582;53.100;6.686;2022-12-29T13:47:40;9.40;99.90
54684;DHT22;40582;53.100;6.686;2022-12-29T13:50:15;9.40;99.90
54684;DHT22;40582;53.100;6.686;2022-12-29T13:55:37;9.30;99.90
54684;DHT22;40582;53.100;6.686;2022-12-29T14:01:18;9.40;99.90
54684;DHT22;40582;53.100;6.686;2022-12-29T14:03:53;9.40;99.90
54684;DHT22;40582;53.100;6.686;2022-12-29T14:06:25;9.30;99.90
54684;DHT22;40582;53.100;6.686;2022-12-29T14:09:01;9.30;99.90
54684;DHT22;40582;53.100;6.686;2022-12-29T14:11:38;9.20;99.90
54684;DHT22;40582;53.100;6.686;2022-12-29T14:16:47;9.10;99.90
54684;DHT22;40582;53.100;6.686;2022-12-29T14:19:31;9.00;99.90
54684;DHT22;40582;53.100;6.686;2022-12-29T14:22:00;9.00;99.90
54684;DHT22;40582;53.100;6.686;2022-12-29T14:27:51;8.90;99.90
54684;DHT22;40582;53.100;6.686;2022-12-29T14:29:50;8.90;99.90
54684;DHT22;40582;53.100;6.686;2022-12-29T14:35:00;8.80;99.90
54684;DHT22;40582;53.100;6.686;2022-12-29T14:37:45;8.80;99.90
54684;DHT22;40582;53.100;6.686;2022-12-29T14:42:40;8.80;99.90
54684;DHT22;40582;53.100;6.686;2022-12-29T14:47:43;8.90;99.90
54684;DHT22;40582;53.100;6.686;2022-12-29T14:50:23;8.90;99.90
54684;DHT22;40582;53.100;6.686;2022-12-29T14:55:41;8.90;99.90
54684;DHT22;40582;53.100;6.686;2022-12-29T14:58:26;8.80;99.90
54684;DHT22;40582;53.100;6.686;2022-12-29T15:00:52;8.70;99.90
54684;DHT22;40582;53.100;6.686;2022-12-29T15:03:22;8.70;99.90
54684;DHT22;40582;53.100;6.686;2022-12-29T15:06:03;8.60;99.90
54684;DHT22;40582;53.100;6.686;2022-12-29T15:08:35;8.50;99.90
54684;DHT22;40582;53.100;6.686;2022-12-29T15:11:41;8.50;99.90
54684;DHT22;40582;53.100;6.686;2022-12-29T15:13:56;8.40;99.90
54684;DHT22;40582;53.100;6.686;2022-12-29T15:16:30;8.30;99.90
54684;DHT22;40582;53.100;6.686;2022-12-29T15:19:02;8.30;99.90
54684;DHT22;40582;53.100;6.686;2022-12-29T15:21:33;8.20;99.90
54684;DHT22;40582;53.100;6.686;2022-12-29T15:24:00;8.20;99.90
54684;DHT22;40582;53.100;6.686;2022-12-29T15:26:38;8.10;99.90
54684;DHT22;40582;53.100;6.686;2022-12-29T15:29:04;8.10;99.90
54684;DHT22;40582;53.100;6.686;2022-12-29T15:31:30;8.10;99.90
54684;DHT22;40582;53.100;6.686;2022-12-29T15:34:02;8.10;99.90
54684;DHT22;40582;53.100;6.686;2022-12-29T15:36:29;8.10;99.90
54684;DHT22;40582;53.100;6.686;2022-12-29T15:39:18;8.00;99.90
54684;DHT22;40582;53.100;6.686;2022-12-29T15:41:52;8.00;99.90
54684;DHT22;40582;53.100;6.686;2022-12-29T15:44:40;8.00;99.90
54684;DHT22;40582;53.100;6.686;2022-12-29T15:47:18;8.00;99.90
54684;DHT22;40582;53.100;6.686;2022-12-29T15:49:48;7.90;99.90
54684;DHT22;40582;53.100;6.686;2022-12-29T15:52:19;8.00;99.90
54684;DHT22;40582;53.100;6.686;2022-12-29T15:54:46;8.00;99.90
54684;DHT22;40582;53.100;6.686;2022-12-29T15:57:26;8.00;99.90
54684;DHT22;40582;53.100;6.686;2022-12-29T15:59:53;7.90;99.90
54684;DHT22;40582;53.100;6.686;2022-12-29T16:02:23;7.90;99.90
54684;DHT22;40582;53.100;6.686;2022-12-29T16:04:50;7.90;99.90
54684;DHT22;40582;53.100;6.686;2022-12-29T16:07:31;7.90;99.90
54684;DHT22;40582;53.100;6.686;2022-12-29T16:09:59;7.90;99.90
54684;DHT22;40582;53.100;6.686;2022-12-29T16:12:35;8.00;99.90
54684;DHT22;40582;53.100;6.686;2022-12-29T16:15:07;8.00;99.90
54684;DHT22;40582;53.100;6.686;2022-12-29T16:17:47;8.00;99.90
54684;DHT22;40582;53.100;6.686;2022-12-29T16:20:19;8.00;99.90
54684;DHT22;40582;53.100;6.686;2022-12-29T16:22:53;8.00;99.90
54684;DHT22;40582;53.100;6.686;2022-12-29T16:27:49;8.00;99.90
54684;DHT22;40582;53.100;6.686;2022-12-29T16:30:31;8.00;99.90
54684;DHT22;40582;53.100;6.686;2022-12-29T16:33:02;8.00;99.90
54684;DHT22;40582;53.100;6.686;2022-12-29T16:35:39;8.10;99.90
54684;DHT22;40582;53.100;6.686;2022-12-29T16:38:21;8.10;99.90
54684;DHT22;40582;53.100;6.686;2022-12-29T16:40:58;8.20;99.90
54684;DHT22;40582;53.100;6.686;2022-12-29T16:43:35;8.30;99.90
54684;DHT22;40582;53.100;6.686;2022-12-29T16:46:27;8.30;99.90
54684;DHT22;40582;53.100;6.686;2022-12-29T16:48:55;8.30;99.90
54684;DHT22;40582;53.100;6.686;2022-12-29T16:51:31;8.40;99.90
54684;DHT22;40582;53.100;6.686;2022-12-29T16:53:58;8.40;99.90
54684;DHT22;40582;53.100;6.686;2022-12-29T16:56:27;8.10;99.90
54684;DHT22;40582;53.100;6.686;2022-12-29T16:59:07;8.00;99.90
54684;DHT22;40582;53.100;6.686;2022-12-29T17:01:37;7.80;99.90
54684;DHT22;40582;53.100;6.686;2022-12-29T17:04:09;7.70;99.90
54684;DHT22;40582;53.100;6.686;2022-12-29T17:06:35;7.70;99.90
54684;DHT22;40582;53.100;6.686;2022-12-29T17:09:01;7.60;99.90
54684;DHT22;40582;53.100;6.686;2022-12-29T17:11:32;7.60;99.90
54684;DHT22;40582;53.100;6.686;2022-12-29T17:17:02;7.60;99.90
54684;DHT22;40582;53.100;6.686;2022-12-29T17:19:33;7.50;99.90
54684;DHT22;40582;53.100;6.686;2022-12-29T17:22:00;7.50;99.90
54684;DHT22;40582;53.100;6.686;2022-12-29T17:24:26;7.40;99.90
54684;DHT22;40582;53.100;6.686;2022-12-29T17:26:57;7.40;99.90
54684;DHT22;40582;53.100;6.686;2022-12-29T17:29:31;7.50;99.90
54684;DHT22;40582;53.100;6.686;2022-12-29T17:31:58;8.00;99.90
54684;DHT22;40582;53.100;6.686;2022-12-29T17:34:24;7.40;99.90
54684;DHT22;40582;53.100;6.686;2022-12-29T17:36:50;7.40;99.90
54684;DHT22;40582;53.100;6.686;2022-12-29T17:39:15;7.40;99.90
54684;DHT22;40582;53.100;6.686;2022-12-29T17:41:41;7.30;99.90
54684;DHT22;40582;53.100;6.686;2022-12-29T17:44:13;7.30;99.90
54684;DHT22;40582;53.100;6.686;2022-12-29T17:46:40;7.30;99.90
54684;DHT22;40582;53.100;6.686;2022-12-29T17:49:14;7.20;99.90
54684;DHT22;40582;53.100;6.686;2022-12-29T17:51:41;7.20;99.90
54684;DHT22;40582;53.100;6.686;2022-12-29T17:54:19;7.10;99.90
54684;DHT22;40582;53.100;6.686;2022-12-29T17:56:46;7.20;99.90
54684;DHT22;40582;53.100;6.686;2022-12-29T17:59:12;7.10;99.90
54684;DHT22;40582;53.100;6.686;2022-12-29T18:01:39;7.10;99.90
54684;DHT22;40582;53.100;6.686;2022-12-29T18:04:05;7.10;99.90
54684;DHT22;40582;53.100;6.686;2022-12-29T18:06:30;7.10;99.90
54684;DHT22;40582;53.100;6.686;2022-12-29T18:08:56;7.00;99.90
54684;DHT22;40582;53.100;6.686;2022-12-29T18:11:24;7.00;99.90
54684;DHT22;40582;53.100;6.686;2022-12-29T18:13:52;7.10;99.90
54684;DHT22;40582;53.100;6.686;2022-12-29T18:16:21;7.10;99.90
54684;DHT22;40582;53.100;6.686;2022-12-29T18:18:46;7.10;99.90
54684;DHT22;40582;53.100;6.686;2022-12-29T18:21:23;7.00;99.90
54684;DHT22;40582;53.100;6.686;2022-12-29T18:23:49;7.00;99.90
54684;DHT22;40582;53.100;6.686;2022-12-29T18:26:18;6.90;99.90
54684;DHT22;40582;53.100;6.686;2022-12-29T18:28:44;6.90;99.90
54684;DHT22;40582;53.100;6.686;2022-12-29T18:31:30;6.90;99.90
54684;DHT22;40582;53.100;6.686;2022-12-29T18:33:57;6.90;99.90
54684;DHT22;40582;53.100;6.686;2022-12-29T18:36:24;6.90;99.90
54684;DHT22;40582;53.100;6.686;2022-12-29T18:38:50;7.00;99.90
54684;DHT22;40582;53.100;6.686;2022-12-29T18:41:28;7.00;99.90